UMKKUHPP

Guest
Details From UMKK - Khrabrovo
To UHPP - Yelizovo
Flight Number -
Tags Generated
Created
Modified
Stats Distance 3,993 nm / 7,396 km
Max Altitude 0 ft / 0 m
Waypoints 5
Social Downloads 0
Likes 0
Share VATSIM

Download

Looking for another format? Having issues loading an existing format? Contact us
Advertisement - Login to hide

Notes

Generated

Route

UMKK AMEVA LANPI UHPP UHPP

ID Type Via Altitude Latitude Longitude Leg Dist Tot Dist Heading (true) Name
O UMKK APT - 0 ft / 0 m 54.88548˚ 20.57484˚ - 0 nm - -
AMEVA FIX - 0 ft / 0 m 61.43833˚ 27.39361˚ 448 nm 448 nm 26° / 32° -
LANPI FIX - 0 ft / 0 m 60.00000˚ 151.85000˚ 3080 nm 3528 nm 32° / 150° -
UHPP FIX - 0 ft / 0 m 53.17000˚ 158.45167˚ 464 nm 3992 nm 149° / 155° -
O UHPP APT - 0 ft / 0 m 53.17608˚ 158.44624˚ 0 nm 3993 nm 332° / 332° -

Altitude Profile

Advertisement - Login to hide

Weather


0- 5 10 15 20 25 30 35+ Temperature / ° C

Clouds and Precipitation
Forecast for 2018-05-24 00:00 UTC. Updated 10 minutes ago

Ground ~20,000 ft ~40,000 ft Winds

UMKK

Details ICAO UMKK (KGD)
Name KHRABROVO
Region Belarus and Russia (Kaliningrad Oblast)
Timezone Europe/Kaliningrad (UTC+2.0)
Stats Elevation 42 ft / 13 m (AMSL)
Location 54.890049° 20.592635°
Runways 1
Magnetic Variation 6.227° E

METAR

UMKK 232330Z 36003MPS CAVOK 13/09 Q1026 R24/CLRD60 NOSIG RMK QFE768/1025

Decode

TAF

TAF TAF UMKK 231959Z 2321/2421 35003G08MPS 9999 SCT030 TEMPO 2321/2406 VRB01MPS 2100 BR MIFG BECMG 2409/2411 34005G10MPS

Decode

Departure Runways

ID Width Length Bearing (true) Bearing (mag) Surface Threshold Offset Overrun Length
06 148 ft / 45 m 8,180 ft / 2,493 m 65.93° 59.70° Concrete 0 ft / 0 m 0 ft / 0 m
24 148 ft / 45 m 8,180 ft / 2,493 m 245.96° 239.73° Concrete 0 ft / 0 m 0 ft / 0 m

UHPP

Details ICAO UHPP (PKC)
Name YELIZOVO
Region Russia
Timezone Asia/Kamchatka (UTC+12.0)
Stats Elevation 131 ft / 40 m (AMSL)
Location 53.167886° 158.453668°
Runways 2
Magnetic Variation 6.696° W

METAR

UHPP 232330Z 19004MPS 160V220 9999 NSC 12/00 Q1007 R34L/CLRD70 NOSIG RMK QFE752/1002

Decode

TAF

TAF UHPP 231939Z 2321/2503 02003G08MPS 9999 NSC FM240000 18003G12MPS 9999 SCT040CB TEMPO 2415/2422 35003MPS 0900 FG VV003 FM242200 18003G12MPS 9999 BKN030CB

Decode

Destination Runways

ID Width Length Bearing (true) Bearing (mag) Surface Threshold Offset Overrun Length
16L 197 ft / 60 m 11,148 ft / 3,398 m 157.27° 163.97° Concrete 0 ft / 0 m 0 ft / 0 m
16R 197 ft / 60 m 8,228 ft / 2,508 m 157.39° 164.09° Concrete 0 ft / 0 m 0 ft / 0 m
34L 197 ft / 60 m 8,228 ft / 2,508 m 337.40° 344.10° Concrete 0 ft / 0 m 0 ft / 0 m
34R 197 ft / 60 m 11,148 ft / 3,398 m 337.29° 343.99° Concrete 0 ft / 0 m 0 ft / 0 m

Approach Navaids

Runway Type Ident Frequency Range Bearing (true) Bearing (mag) Slope Elevation
34R Localiser IPR 110.30 MHz 18 nm / 33 km 335.55° 342.24° - 131 ft / 40 m (AMSL)
34R Glidescope IPR 110.30 MHz 10 nm / 19 km 337.28° 343.97° 2.70° 131 ft / 40 m (AMSL)

Popular Alternatives